Time;durP1;ratioP1;P1;durP2;ratioP2;P2;SDS_P1;SDS_P2;PMS_P1;PMS_P2;Temp;Humidity;BMP_temperature;BMP_pressure;BME280_temperature;BME280_humidity;BME280_pressure;Samples;Min_cycle;Max_cycle;Signal;HPM_P1;HPM_P2
2023/03/08 00:01:00;;;;;;;31.15;14.57;;;;;;;;;;4992285;28;20026;-72
2023/03/08 00:03:26;;;;;;;28.90;14.15;;;;;;;;;;4991956;28;20038;-72
2023/03/08 00:05:52;;;;;;;34.90;14.82;;;;;;;;;;4992360;28;20028;-70
2023/03/08 00:08:18;;;;;;;34.20;14.80;;;;;;;;;;4992346;28;20418;-70
2023/03/08 00:10:45;;;;;;;33.53;15.48;;;;;;;;;;4992010;28;20090;-70
2023/03/08 00:13:11;;;;;;;33.00;14.70;;;;;;;;;;4992123;28;20029;-71
2023/03/08 00:15:38;;;;;;;31.33;15.13;;;;;;;;;;4991997;28;20044;-70
2023/03/08 00:18:07;;;;;;;36.33;15.23;;;;;;;;;;4992267;28;20037;-70
2023/03/08 00:20:33;;;;;;;32.97;15.27;;;;;;;;;;4991973;28;20433;-71
2023/03/08 00:22:59;;;;;;;35.20;14.40;;;;;;;;;;4992074;28;20034;-70
2023/03/08 00:25:25;;;;;;;34.28;15.75;;;;;;;;;;4991749;28;20057;-70
2023/03/08 00:27:51;;;;;;;34.20;15.10;;;;;;;;;;4992123;28;20023;-71
2023/03/08 00:30:18;;;;;;;30.70;14.07;;;;;;;;;;4992205;28;20080;-71
2023/03/08 00:32:44;;;;;;;37.40;14.68;;;;;;;;;;4991922;28;20035;-72
2023/03/08 00:35:10;;;;;;;32.10;15.55;;;;;;;;;;4990227;28;20189;-71
2023/03/08 00:37:36;;;;;;;35.20;17.15;;;;;;;;;;4991795;28;20034;-71
2023/03/08 00:40:04;;;;;;;34.75;15.93;;;;;;;;;;4991750;28;20109;-71
2023/03/08 00:42:30;;;;;;;32.20;14.88;;;;;;;;;;4991898;28;20027;-72
2023/03/08 00:44:56;;;;;;;35.13;16.67;;;;;;;;;;4991766;28;20029;-71
2023/03/08 00:47:22;;;;;;;28.30;15.10;;;;;;;;;;4991912;28;20026;-70
2023/03/08 00:49:49;;;;;;;34.45;16.10;;;;;;;;;;4991612;28;20033;-71
2023/03/08 00:52:15;;;;;;;30.02;14.85;;;;;;;;;;4991774;28;20515;-71
2023/03/08 00:54:41;;;;;;;29.58;14.10;;;;;;;;;;4991794;28;20023;-69
2023/03/08 00:57:07;;;;;;;32.55;15.77;;;;;;;;;;4991720;28;20569;-70
2023/03/08 00:59:33;;;;;;;29.90;14.95;;;;;;;;;;4990442;28;20080;-70
2023/03/08 01:02:00;;;;;;;31.95;16.00;;;;;;;;;;4991499;28;20034;-70
2023/03/08 01:04:26;;;;;;;31.58;14.55;;;;;;;;;;4991495;28;20029;-70
2023/03/08 01:06:52;;;;;;;30.15;15.23;;;;;;;;;;4991606;28;20479;-70
2023/03/08 01:09:18;;;;;;;33.13;14.95;;;;;;;;;;4991562;28;20502;-70
2023/03/08 01:11:44;;;;;;;33.95;15.70;;;;;;;;;;4991418;28;20109;-71
2023/03/08 01:14:11;;;;;;;33.03;15.43;;;;;;;;;;4991602;28;20023;-70
2023/03/08 01:16:37;;;;;;;30.73;15.15;;;;;;;;;;4990229;28;20022;-70
2023/03/08 01:19:04;;;;;;;31.80;13.85;;;;;;;;;;4991485;28;20365;-70
2023/03/08 01:21:30;;;;;;;26.77;12.82;;;;;;;;;;4991194;28;20512;-73
2023/03/08 01:23:57;;;;;;;30.20;13.77;;;;;;;;;;4991352;28;20038;-70
2023/03/08 01:26:24;;;;;;;29.27;13.77;;;;;;;;;;4991441;28;20018;-70
2023/03/08 01:28:51;;;;;;;27.75;12.57;;;;;;;;;;4991453;28;20034;-70
2023/03/08 01:31:21;;;;;;;27.52;13.18;;;;;;;;;;4990173;28;20033;-71
2023/03/08 01:33:47;;;;;;;28.20;12.82;;;;;;;;;;4991155;28;20050;-70
2023/03/08 01:36:15;;;;;;;29.48;12.27;;;;;;;;;;4989925;28;20479;-70
2023/03/08 01:38:41;;;;;;;25.10;11.95;;;;;;;;;;4991267;28;20038;-70
2023/03/08 01:41:12;;;;;;;27.95;12.35;;;;;;;;;;4991338;28;20483;-71
2023/03/08 01:43:39;;;;;;;24.83;11.98;;;;;;;;;;4991345;28;20483;-70
2023/03/08 01:46:05;;;;;;;27.73;12.55;;;;;;;;;;4992715;28;20018;-70
2023/03/08 01:48:33;;;;;;;26.95;13.13;;;;;;;;;;4994733;28;20026;-71
2023/03/08 01:51:00;;;;;;;27.60;12.68;;;;;;;;;;4994525;28;20085;-70
2023/03/08 01:53:26;;;;;;;26.50;12.13;;;;;;;;;;4994606;28;20053;-70
2023/03/08 01:55:52;;;;;;;25.00;11.73;;;;;;;;;;4994400;28;20029;-70
2023/03/08 01:58:18;;;;;;;29.20;11.82;;;;;;;;;;4993257;28;20053;-70
2023/03/08 02:00:45;;;;;;;31.90;12.07;;;;;;;;;;4993241;28;20069;-71
2023/03/08 02:03:11;;;;;;;26.02;11.70;;;;;;;;;;4994095;28;20049;-71
2023/03/08 02:05:40;;;;;;;27.40;12.23;;;;;;;;;;4994540;28;20018;-71
2023/03/08 02:08:06;;;;;;;24.13;10.68;;;;;;;;;;4994485;28;20027;-69
2023/03/08 02:10:33;;;;;;;23.00;9.60;;;;;;;;;;4994268;28;20065;-70
2023/03/08 02:12:59;;;;;;;19.00;9.50;;;;;;;;;;4994301;28;20033;-69
2023/03/08 02:15:25;;;;;;;19.38;9.25;;;;;;;;;;4994082;28;20512;-70
2023/03/08 02:17:51;;;;;;;21.02;9.45;;;;;;;;;;4992865;28;20026;-70
2023/03/08 02:20:20;;;;;;;17.63;8.15;;;;;;;;;;4993837;28;20025;-70
2023/03/08 02:22:48;;;;;;;18.50;9.30;;;;;;;;;;4992806;28;20038;-69
2023/03/08 02:25:19;;;;;;;20.67;9.93;;;;;;;;;;4994145;28;20430;-70
2023/03/08 02:27:45;;;;;;;18.73;8.82;;;;;;;;;;4994101;28;20106;-70
2023/03/08 02:30:13;;;;;;;15.07;7.78;;;;;;;;;;4992528;28;20030;-69
2023/03/08 02:32:39;;;;;;;16.85;7.80;;;;;;;;;;4993743;28;20073;-71
2023/03/08 02:35:05;;;;;;;15.80;7.85;;;;;;;;;;4993759;28;20090;-70
2023/03/08 02:37:34;;;;;;;17.27;8.18;;;;;;;;;;4993688;28;20026;-70
2023/03/08 02:40:00;;;;;;;19.85;8.77;;;;;;;;;;4993604;28;20467;-70
2023/03/08 02:42:26;;;;;;;19.50;8.25;;;;;;;;;;4993608;28;20041;-70
2023/03/08 02:44:52;;;;;;;15.00;7.72;;;;;;;;;;4993517;28;20041;-70
2023/03/08 02:47:18;;;;;;;20.88;8.40;;;;;;;;;;4993525;28;20057;-70
2023/03/08 02:49:44;;;;;;;16.15;7.47;;;;;;;;;;4993383;28;20044;-70
2023/03/08 02:52:10;;;;;;;17.90;6.95;;;;;;;;;;4993575;28;20100;-68
2023/03/08 02:54:36;;;;;;;15.73;6.28;;;;;;;;;;4993482;28;20030;-70
2023/03/08 02:57:02;;;;;;;19.10;7.28;;;;;;;;;;4992115;28;20030;-70
2023/03/08 02:59:29;;;;;;;14.45;6.47;;;;;;;;;;4993341;28;20101;-70
2023/03/08 03:01:56;;;;;;;14.25;5.85;;;;;;;;;;4975798;28;20403;-71
2023/03/08 03:04:22;;;;;;;13.82;6.82;;;;;;;;;;4993247;28;20030;-70
2023/03/08 03:06:48;;;;;;;14.10;6.80;;;;;;;;;;4993305;28;20165;-70
2023/03/08 03:09:14;;;;;;;15.55;5.80;;;;;;;;;;4993221;28;20026;-70
2023/03/08 03:11:41;;;;;;;15.52;6.35;;;;;;;;;;4993077;28;20027;-71
2023/03/08 03:14:07;;;;;;;12.02;5.30;;;;;;;;;;4993814;28;20102;-70
2023/03/08 03:16:33;;;;;;;11.23;4.85;;;;;;;;;;5012593;28;20037;-70
2023/03/08 03:18:59;;;;;;;12.43;5.80;;;;;;;;;;5012540;28;20041;-71
2023/03/08 03:21:25;;;;;;;12.57;6.30;;;;;;;;;;5010968;28;20050;-71
2023/03/08 03:23:53;;;;;;;13.95;6.20;;;;;;;;;;5012024;28;20103;-69
2023/03/08 03:26:20;;;;;;;13.85;6.32;;;;;;;;;;5012184;28;20520;-71
2023/03/08 03:28:46;;;;;;;8.73;4.28;;;;;;;;;;5012144;28;20033;-69
2023/03/08 03:31:14;;;;;;;12.82;5.88;;;;;;;;;;5012325;28;20103;-71
2023/03/08 03:33:40;;;;;;;13.25;6.30;;;;;;;;;;5010789;28;20060;-71
2023/03/08 03:36:08;;;;;;;17.73;7.05;;;;;;;;;;5011743;28;20479;-70
2023/03/08 03:38:34;;;;;;;13.85;6.78;;;;;;;;;;5010534;28;20033;-73
2023/03/08 03:41:01;;;;;;;19.00;7.32;;;;;;;;;;5011979;28;20097;-70
2023/03/08 03:43:27;;;;;;;16.65;6.90;;;;;;;;;;5010561;28;20517;-71
2023/03/08 03:45:57;;;;;;;15.30;7.18;;;;;;;;;;5011716;28;20507;-72
2023/03/08 03:48:23;;;;;;;14.48;6.45;;;;;;;;;;5011823;28;20025;-71
2023/03/08 03:50:56;;;;;;;17.73;6.85;;;;;;;;;;5011806;28;20463;-71
2023/03/08 03:53:22;;;;;;;14.75;6.28;;;;;;;;;;5011846;28;20061;-72
2023/03/08 03:55:49;;;;;;;13.88;6.35;;;;;;;;;;5011468;28;20036;-70
2023/03/08 03:58:15;;;;;;;15.18;6.50;;;;;;;;;;5007614;28;20022;-69
2023/03/08 04:00:41;;;;;;;15.00;7.00;;;;;;;;;;5011719;28;20026;-70
2023/03/08 04:03:07;;;;;;;12.02;5.25;;;;;;;;;;4999970;28;20034;-71
2023/03/08 04:05:33;;;;;;;15.90;6.00;;;;;;;;;;5011870;28;20487;-69
2023/03/08 04:08:00;;;;;;;16.48;7.00;;;;;;;;;;5011066;28;20030;-70
2023/03/08 04:10:27;;;;;;;17.77;7.00;;;;;;;;;;5011632;28;20097;-69
2023/03/08 04:12:53;;;;;;;14.60;6.45;;;;;;;;;;5011667;28;20309;-68
2023/03/08 04:15:19;;;;;;;16.13;7.38;;;;;;;;;;5011367;28;20026;-69
2023/03/08 04:17:45;;;;;;;14.45;6.95;;;;;;;;;;5011271;28;20497;-69
2023/03/08 04:20:13;;;;;;;13.68;6.55;;;;;;;;;;4996485;28;20030;-69
2023/03/08 04:22:39;;;;;;;12.98;6.05;;;;;;;;;;4991638;28;20040;-70
2023/03/08 04:25:05;;;;;;;14.77;6.65;;;;;;;;;;5006827;28;20022;-68
2023/03/08 04:27:31;;;;;;;14.23;6.78;;;;;;;;;;4991773;28;20033;-68
2023/03/08 04:29:57;;;;;;;13.32;6.43;;;;;;;;;;4991733;28;20033;-68
2023/03/08 04:32:23;;;;;;;13.38;5.88;;;;;;;;;;4991595;28;20023;-69
2023/03/08 04:34:49;;;;;;;13.13;5.47;;;;;;;;;;4992074;28;20105;-69
2023/03/08 04:37:16;;;;;;;10.57;4.90;;;;;;;;;;4992063;28;20499;-69
2023/03/08 04:39:43;;;;;;;12.50;5.57;;;;;;;;;;4991394;28;20030;-67
2023/03/08 04:42:09;;;;;;;9.95;5.15;;;;;;;;;;4991571;28;20037;-68
2023/03/08 04:44:37;;;;;;;10.80;5.50;;;;;;;;;;4991836;28;20038;-69
2023/03/08 04:47:03;;;;;;;10.68;5.05;;;;;;;;;;4991640;28;20030;-69
2023/03/08 04:49:30;;;;;;;8.73;4.90;;;;;;;;;;4991557;28;20058;-69
2023/03/08 04:51:56;;;;;;;10.10;5.03;;;;;;;;;;4995804;28;20025;-70
2023/03/08 04:54:22;;;;;;;11.57;5.00;;;;;;;;;;4995574;28;20058;-69
2023/03/08 04:56:48;;;;;;;10.88;6.15;;;;;;;;;;4991528;28;20022;-69
2023/03/08 04:59:14;;;;;;;12.55;5.65;;;;;;;;;;4991530;28;20546;-70
2023/03/08 05:01:41;;;;;;;11.50;5.32;;;;;;;;;;4991661;28;20134;-70
2023/03/08 05:04:09;;;;;;;8.35;4.53;;;;;;;;;;4991633;28;20027;-70
2023/03/08 05:06:35;;;;;;;8.27;4.45;;;;;;;;;;4991486;28;20022;-71
2023/03/08 05:09:01;;;;;;;8.13;4.32;;;;;;;;;;5006432;28;20027;-70
2023/03/08 05:11:28;;;;;;;6.78;3.97;;;;;;;;;;5020760;28;20439;-70
2023/03/08 05:13:55;;;;;;;9.02;4.00;;;;;;;;;;4991732;28;20022;-72
2023/03/08 05:16:21;;;;;;;7.32;3.92;;;;;;;;;;4991449;28;20523;-70
2023/03/08 05:18:47;;;;;;;6.70;3.80;;;;;;;;;;4991633;28;20089;-69
2023/03/08 05:21:14;;;;;;;6.82;3.92;;;;;;;;;;5024697;28;20052;-69
2023/03/08 05:23:41;;;;;;;5.82;3.72;;;;;;;;;;5026546;28;20038;-70
2023/03/08 05:26:08;;;;;;;6.85;3.95;;;;;;;;;;4995106;28;20097;-70
2023/03/08 05:28:35;;;;;;;5.45;3.35;;;;;;;;;;5012927;28;20037;-70
2023/03/08 05:31:08;;;;;;;5.50;3.10;;;;;;;;;;5013436;28;20022;-71
2023/03/08 05:33:34;;;;;;;5.15;2.70;;;;;;;;;;5014590;28;20076;-70
2023/03/08 05:36:01;;;;;;;4.72;2.88;;;;;;;;;;5014365;28;20560;-71
2023/03/08 05:38:27;;;;;;;4.88;3.00;;;;;;;;;;5014359;28;20022;-71
2023/03/08 05:40:53;;;;;;;6.28;2.95;;;;;;;;;;5014597;28;20021;-71
2023/03/08 05:43:20;;;;;;;4.05;2.90;;;;;;;;;;5014015;28;20487;-70
2023/03/08 05:45:56;;;;;;;6.50;3.13;;;;;;;;;;5013857;28;20120;-71
2023/03/08 05:48:22;;;;;;;4.80;3.13;;;;;;;;;;5014392;28;20102;-72
2023/03/08 05:50:48;;;;;;;3.38;2.17;;;;;;;;;;5012930;28;20362;-71
2023/03/08 05:53:14;;;;;;;5.80;2.88;;;;;;;;;;5014258;28;20117;-71
2023/03/08 05:55:40;;;;;;;4.45;2.85;;;;;;;;;;5014320;28;20022;-70
2023/03/08 05:58:06;;;;;;;4.63;2.83;;;;;;;;;;5014138;28;20144;-70
2023/03/08 06:00:32;;;;;;;5.20;3.03;;;;;;;;;;5013410;28;20030;-69
2023/03/08 06:03:02;;;;;;;4.05;2.83;;;;;;;;;;5013973;28;20117;-71
2023/03/08 06:05:28;;;;;;;4.10;2.78;;;;;;;;;;5014112;28;20593;-71
2023/03/08 06:07:54;;;;;;;4.05;2.92;;;;;;;;;;5013906;28;20033;-70
2023/03/08 06:10:20;;;;;;;3.60;2.50;;;;;;;;;;5013966;28;20014;-70
2023/03/08 06:12:46;;;;;;;4.60;2.75;;;;;;;;;;5013770;28;20084;-70
2023/03/08 06:15:13;;;;;;;4.95;3.13;;;;;;;;;;5013962;28;20103;-70
2023/03/08 06:17:39;;;;;;;5.50;3.05;;;;;;;;;;5012775;28;20054;-70
2023/03/08 06:20:06;;;;;;;4.03;2.78;;;;;;;;;;5013522;28;20026;-70
2023/03/08 06:22:32;;;;;;;4.68;3.28;;;;;;;;;;5013484;28;20042;-69
2023/03/08 06:24:58;;;;;;;5.35;3.47;;;;;;;;;;5013293;28;20100;-69
2023/03/08 06:27:24;;;;;;;5.15;3.47;;;;;;;;;;5013604;28;20026;-69
2023/03/08 06:29:50;;;;;;;6.20;3.75;;;;;;;;;;5013497;28;20088;-70
2023/03/08 06:32:17;;;;;;;6.15;3.83;;;;;;;;;;5012909;28;20110;-71
2023/03/08 06:34:43;;;;;;;5.78;3.67;;;;;;;;;;5010617;28;20034;-71
2023/03/08 06:37:10;;;;;;;5.78;3.97;;;;;;;;;;5000425;28;20056;-70
2023/03/08 06:39:36;;;;;;;5.95;3.45;;;;;;;;;;5013228;28;20022;-70
2023/03/08 06:42:02;;;;;;;5.05;3.25;;;;;;;;;;5010104;28;20029;-70
2023/03/08 06:44:28;;;;;;;5.65;3.30;;;;;;;;;;5011922;28;20034;-72
2023/03/08 06:46:55;;;;;;;4.38;2.97;;;;;;;;;;5011780;28;20149;-73
2023/03/08 06:49:21;;;;;;;5.22;3.65;;;;;;;;;;5013118;28;20044;-71
2023/03/08 06:51:47;;;;;;;6.43;4.10;;;;;;;;;;5013147;28;20028;-71
2023/03/08 06:54:16;;;;;;;9.57;3.95;;;;;;;;;;5013150;28;20028;-73
2023/03/08 06:56:46;;;;;;;7.43;4.20;;;;;;;;;;5012941;28;20014;-72
2023/03/08 06:59:13;;;;;;;8.75;4.55;;;;;;;;;;4999727;28;20026;-72
2023/03/08 07:01:39;;;;;;;6.03;3.95;;;;;;;;;;5012544;28;20114;-73
2023/03/08 07:04:06;;;;;;;6.30;3.80;;;;;;;;;;5012662;28;20586;-72
2023/03/08 07:06:32;;;;;;;8.85;4.88;;;;;;;;;;5012048;28;20030;-73
2023/03/08 07:08:58;;;;;;;6.32;3.90;;;;;;;;;;5012116;28;20029;-73
2023/03/08 07:11:25;;;;;;;8.15;4.22;;;;;;;;;;5012879;28;20045;-72
2023/03/08 07:13:52;;;;;;;7.93;4.00;;;;;;;;;;5011903;28;20046;-73
2023/03/08 07:16:18;;;;;;;7.00;4.22;;;;;;;;;;5012889;28;20026;-73
2023/03/08 07:18:44;;;;;;;6.55;4.13;;;;;;;;;;5011643;28;20030;-74
2023/03/08 07:21:11;;;;;;;7.50;3.90;;;;;;;;;;5012345;28;20054;-74
2023/03/08 07:23:37;;;;;;;6.30;3.95;;;;;;;;;;5012448;28;20037;-74
2023/03/08 07:26:06;;;;;;;5.85;4.28;;;;;;;;;;5012307;28;20406;-74
2023/03/08 07:28:32;;;;;;;9.63;4.85;;;;;;;;;;5011777;28;20045;-74
2023/03/08 07:30:58;;;;;;;7.75;5.13;;;;;;;;;;5012310;28;20022;-74
2023/03/08 07:33:25;;;;;;;10.77;5.43;;;;;;;;;;5011495;28;20475;-74
2023/03/08 07:35:51;;;;;;;11.82;5.20;;;;;;;;;;5012280;28;20493;-74
2023/03/08 07:38:17;;;;;;;10.43;5.53;;;;;;;;;;5008003;28;20025;-74
2023/03/08 07:40:43;;;;;;;9.93;6.00;;;;;;;;;;5009575;28;20176;-74
2023/03/08 07:43:09;;;;;;;10.07;6.03;;;;;;;;;;5005782;28;20098;-74
2023/03/08 07:45:38;;;;;;;9.00;4.95;;;;;;;;;;5012151;28;20030;-74
2023/03/08 07:48:04;;;;;;;11.88;6.13;;;;;;;;;;5001837;28;20026;-74
2023/03/08 07:50:30;;;;;;;10.98;6.68;;;;;;;;;;4992514;28;20026;-73
2023/03/08 07:52:58;;;;;;;10.65;6.05;;;;;;;;;;4992478;28;20030;-74
2023/03/08 07:55:26;;;;;;;12.55;5.93;;;;;;;;;;5005915;28;20723;-74
2023/03/08 07:57:52;;;;;;;12.75;7.20;;;;;;;;;;5011911;28;20022;-74
2023/03/08 08:00:18;;;;;;;16.20;6.90;;;;;;;;;;4998333;28;20030;-75
2023/03/08 08:02:45;;;;;;;13.43;6.80;;;;;;;;;;4992214;28;20498;-74
2023/03/08 08:05:11;;;;;;;14.48;7.72;;;;;;;;;;4992311;28;20475;-70
2023/03/08 08:07:37;;;;;;;14.10;7.82;;;;;;;;;;4992028;28;20052;-69
2023/03/08 08:10:04;;;;;;;16.13;8.10;;;;;;;;;;4998726;28;20026;-71
2023/03/08 08:12:30;;;;;;;16.30;8.25;;;;;;;;;;4997289;28;20029;-70
2023/03/08 08:14:58;;;;;;;14.63;7.68;;;;;;;;;;5011764;28;20036;-69
2023/03/08 08:17:25;;;;;;;16.20;7.75;;;;;;;;;;5011766;28;20418;-70
2023/03/08 08:19:51;;;;;;;16.10;7.88;;;;;;;;;;5006513;28;20030;-71
2023/03/08 08:22:17;;;;;;;18.40;9.75;;;;;;;;;;4997629;28;20049;-69
2023/03/08 08:24:43;;;;;;;14.95;7.32;;;;;;;;;;5011094;28;20030;-70
2023/03/08 08:27:09;;;;;;;19.70;8.35;;;;;;;;;;5011277;28;20030;-69
2023/03/08 08:29:36;;;;;;;20.98;9.35;;;;;;;;;;5011480;28;20024;-69
2023/03/08 08:32:03;;;;;;;20.67;9.40;;;;;;;;;;5011087;28;20022;-69
2023/03/08 08:34:29;;;;;;;20.85;10.20;;;;;;;;;;5011520;28;20038;-69
2023/03/08 08:36:55;;;;;;;20.27;10.05;;;;;;;;;;5011044;28;20030;-69
2023/03/08 08:39:21;;;;;;;18.38;9.55;;;;;;;;;;5011310;28;20022;-68
2023/03/08 08:41:48;;;;;;;20.08;9.98;;;;;;;;;;5010081;28;20075;-69
2023/03/08 08:44:15;;;;;;;21.73;10.32;;;;;;;;;;5010189;28;20085;-70
2023/03/08 08:46:41;;;;;;;19.23;9.32;;;;;;;;;;5011313;28;20022;-69
2023/03/08 08:49:07;;;;;;;21.67;10.55;;;;;;;;;;5011141;28;20080;-69
2023/03/08 08:51:33;;;;;;;19.30;10.80;;;;;;;;;;5011287;28;20022;-69
2023/03/08 08:53:59;;;;;;;21.60;10.05;;;;;;;;;;5011194;28;20092;-68
2023/03/08 08:56:26;;;;;;;25.75;12.02;;;;;;;;;;5015255;28;20037;-70
2023/03/08 08:58:52;;;;;;;21.48;9.05;;;;;;;;;;5015235;28;20044;-69
2023/03/08 09:01:22;;;;;;;24.98;10.13;;;;;;;;;;5015231;28;20145;-69
2023/03/08 09:03:48;;;;;;;18.52;9.32;;;;;;;;;;5015055;28;20095;-70
2023/03/08 09:06:16;;;;;;;26.05;10.65;;;;;;;;;;5013698;28;20083;-69
2023/03/08 09:08:42;;;;;;;24.40;10.30;;;;;;;;;;5015054;28;20483;-69
2023/03/08 09:11:09;;;;;;;21.95;9.02;;;;;;;;;;5015186;28;20075;-69
2023/03/08 09:13:39;;;;;;;23.40;9.70;;;;;;;;;;5014876;28;20034;-71
2023/03/08 09:16:05;;;;;;;20.30;9.50;;;;;;;;;;5014852;28;20049;-70
2023/03/08 09:18:32;;;;;;;21.33;9.65;;;;;;;;;;5014943;28;20068;-70
2023/03/08 09:21:00;;;;;;;23.33;9.77;;;;;;;;;;5014554;28;20042;-69
2023/03/08 09:23:27;;;;;;;22.30;10.20;;;;;;;;;;5014730;28;20034;-69
2023/03/08 09:25:57;;;;;;;20.13;9.77;;;;;;;;;;5013448;28;20421;-69
2023/03/08 09:28:23;;;;;;;18.80;8.07;;;;;;;;;;5014764;28;20026;-70
2023/03/08 09:30:49;;;;;;;20.50;9.43;;;;;;;;;;5014742;28;20018;-69
2023/03/08 09:33:16;;;;;;;28.90;10.00;;;;;;;;;;5014621;28;20026;-69
2023/03/08 09:35:42;;;;;;;19.23;9.02;;;;;;;;;;5014677;28;20494;-69
2023/03/08 09:38:08;;;;;;;19.48;8.88;;;;;;;;;;5014238;28;20544;-70
2023/03/08 09:40:38;;;;;;;21.50;9.00;;;;;;;;;;5014674;28;20040;-68
2023/03/08 09:43:05;;;;;;;19.70;8.30;;;;;;;;;;5013219;28;20458;-68
2023/03/08 09:45:32;;;;;;;20.65;8.43;;;;;;;;;;5014388;28;20483;-70
2023/03/08 09:48:12;;;;;;;17.77;8.27;;;;;;;;;;5013108;28;20393;-68
2023/03/08 09:50:38;;;;;;;18.30;8.10;;;;;;;;;;5014478;28;20061;-68
2023/03/08 09:53:10;;;;;;;19.67;8.35;;;;;;;;;;5014213;28;20052;-70
2023/03/08 09:55:43;;;;;;;20.92;8.98;;;;;;;;;;5014362;28;20485;-69
2023/03/08 09:58:32;;;;;;;18.50;10.02;;;;;;;;;;5014167;28;20029;-70
2023/03/08 10:01:09;;;;;;;18.38;9.50;;;;;;;;;;5014105;28;20069;-71
2023/03/08 10:03:47;;;;;;;21.60;9.20;;;;;;;;;;5013979;28;20120;-70
2023/03/08 10:06:25;;;;;;;21.58;9.88;;;;;;;;;;5013318;28;20065;-69
2023/03/08 10:08:58;;;;;;;25.52;10.70;;;;;;;;;;5013867;28;20057;-70
2023/03/08 10:11:30;;;;;;;19.88;9.63;;;;;;;;;;5014073;28;20010;-69
2023/03/08 10:13:58;;;;;;;21.20;9.90;;;;;;;;;;5013871;28;20034;-69
2023/03/08 10:16:26;;;;;;;20.20;9.88;;;;;;;;;;5014023;28;20022;-68
2023/03/08 10:19:00;;;;;;;21.60;10.13;;;;;;;;;;5013673;28;20084;-69
2023/03/08 10:21:27;;;;;;;21.80;10.60;;;;;;;;;;5012409;28;20462;-69
2023/03/08 10:24:11;;;;;;;19.65;10.77;;;;;;;;;;5013769;28;20131;-70
2023/03/08 10:26:37;;;;;;;20.50;10.20;;;;;;;;;;5013576;28;20049;-69
2023/03/08 10:29:03;;;;;;;19.88;10.05;;;;;;;;;;5013613;28;20033;-69
2023/03/08 10:31:32;;;;;;;24.10;11.27;;;;;;;;;;5013418;28;20068;-68
2023/03/08 10:34:10;;;;;;;25.38;10.73;;;;;;;;;;5013424;28;20041;-68
2023/03/08 10:36:46;;;;;;;20.20;10.57;;;;;;;;;;5013390;28;20030;-68
2023/03/08 10:39:13;;;;;;;23.77;11.13;;;;;;;;;;5013343;28;20022;-69
2023/03/08 10:41:43;;;;;;;27.00;11.48;;;;;;;;;;5013360;28;20033;-69
2023/03/08 10:44:26;;;;;;;19.65;10.25;;;;;;;;;;5013198;28;20493;-68
2023/03/08 10:46:52;;;;;;;22.20;10.23;;;;;;;;;;5013355;28;20030;-68
2023/03/08 10:49:19;;;;;;;23.33;11.63;;;;;;;;;;5013163;28;20057;-68
2023/03/08 10:51:56;;;;;;;24.65;11.93;;;;;;;;;;5012959;28;20026;-70
2023/03/08 10:54:22;;;;;;;19.73;11.20;;;;;;;;;;5013689;28;20108;-68
2023/03/08 10:56:53;;;;;;;22.38;11.00;;;;;;;;;;5012914;28;20018;-69
2023/03/08 10:59:26;;;;;;;21.97;10.57;;;;;;;;;;5012893;28;20061;-69
2023/03/08 11:01:53;;;;;;;19.42;10.00;;;;;;;;;;5012877;28;20022;-68
2023/03/08 11:04:20;;;;;;;20.38;10.35;;;;;;;;;;5013054;28;20054;-68
2023/03/08 11:06:47;;;;;;;24.10;11.38;;;;;;;;;;5012823;28;20079;-67
2023/03/08 11:09:22;;;;;;;23.27;11.23;;;;;;;;;;5012626;28;20474;-68
2023/03/08 11:11:49;;;;;;;18.95;9.95;;;;;;;;;;5011639;28;20057;-69
2023/03/08 11:14:15;;;;;;;22.02;11.73;;;;;;;;;;5012671;28;20025;-69
2023/03/08 11:16:41;;;;;;;21.17;11.82;;;;;;;;;;5011336;28;20471;-69
2023/03/08 11:19:17;;;;;;;25.67;11.85;;;;;;;;;;5012759;28;20014;-68
2023/03/08 11:21:46;;;;;;;22.90;11.60;;;;;;;;;;5012323;28;20125;-69
2023/03/08 11:24:35;;;;;;;24.80;11.85;;;;;;;;;;5012487;28;20118;-68
2023/03/08 11:27:08;;;;;;;24.10;12.27;;;;;;;;;;5012668;28;20030;-68
2023/03/08 11:29:34;;;;;;;23.75;11.68;;;;;;;;;;5012348;28;20494;-69
2023/03/08 11:32:19;;;;;;;23.17;10.95;;;;;;;;;;5012924;28;20026;-69
2023/03/08 11:35:03;;;;;;;22.73;10.77;;;;;;;;;;5012448;28;20030;-68
2023/03/08 11:37:45;;;;;;;19.58;10.05;;;;;;;;;;5012322;28;20382;-69
2023/03/08 11:40:37;;;;;;;20.90;10.75;;;;;;;;;;5012113;28;20022;-68
2023/03/08 11:43:03;;;;;;;21.40;11.02;;;;;;;;;;5010885;28;20056;-69
2023/03/08 11:45:36;;;;;;;19.45;10.27;;;;;;;;;;5010898;28;20018;-68
2023/03/08 11:48:07;;;;;;;20.95;10.90;;;;;;;;;;5012074;28;20053;-67
2023/03/08 11:50:33;;;;;;;22.58;10.57;;;;;;;;;;5012207;28;20026;-69
2023/03/08 11:53:03;;;;;;;18.83;9.30;;;;;;;;;;5012207;28;20192;-68
2023/03/08 11:55:47;;;;;;;19.92;10.23;;;;;;;;;;5012220;28;20036;-69
2023/03/08 11:58:32;;;;;;;20.27;10.40;;;;;;;;;;5012214;28;20129;-69
2023/03/08 12:01:02;;;;;;;23.58;10.95;;;;;;;;;;5012014;28;20062;-70
2023/03/08 12:03:33;;;;;;;22.58;10.70;;;;;;;;;;5011858;28;20128;-68
2023/03/08 12:06:01;;;;;;;17.33;9.27;;;;;;;;;;5012105;28;20118;-69
2023/03/08 12:08:41;;;;;;;17.02;9.02;;;;;;;;;;5011582;28;20030;-69
2023/03/08 12:11:18;;;;;;;23.85;9.73;;;;;;;;;;5011651;28;20022;-69
2023/03/08 12:13:47;;;;;;;20.45;9.75;;;;;;;;;;5011861;28;20033;-68
2023/03/08 12:16:16;;;;;;;21.08;10.27;;;;;;;;;;5011789;28;20021;-68
2023/03/08 12:18:45;;;;;;;17.67;9.73;;;;;;;;;;5011815;28;20032;-68
2023/03/08 12:21:44;;;;;;;21.73;9.63;;;;;;;;;;5011297;28;20088;-68
2023/03/08 12:24:28;;;;;;;18.00;8.75;;;;;;;;;;4999276;28;20048;-70
2023/03/08 12:27:05;;;;;;;15.50;8.25;;;;;;;;;;5011654;28;20108;-68
2023/03/08 12:29:35;;;;;;;17.98;9.48;;;;;;;;;;5011150;28;20026;-68
2023/03/08 12:32:03;;;;;;;18.67;8.95;;;;;;;;;;5011403;28;20026;-69
2023/03/08 12:34:36;;;;;;;17.15;8.45;;;;;;;;;;5011419;28;20553;-70
2023/03/08 12:37:02;;;;;;;15.73;9.18;;;;;;;;;;5011499;28;20028;-69
2023/03/08 12:39:33;;;;;;;17.17;8.80;;;;;;;;;;5011465;28;20056;-69
2023/03/08 12:42:12;;;;;;;17.50;9.52;;;;;;;;;;5011503;28;20026;-69
2023/03/08 12:44:38;;;;;;;18.73;9.63;;;;;;;;;;5011359;28;20025;-68
2023/03/08 12:47:13;;;;;;;19.45;8.35;;;;;;;;;;5011651;28;20049;-69
2023/03/08 12:49:44;;;;;;;15.70;8.65;;;;;;;;;;5011377;28;20474;-68
2023/03/08 12:52:19;;;;;;;18.65;9.10;;;;;;;;;;5011508;28;20109;-69
2023/03/08 12:55:07;;;;;;;21.23;8.85;;;;;;;;;;5011237;28;20033;-69
2023/03/08 12:57:41;;;;;;;18.02;8.50;;;;;;;;;;5011083;28;20386;-70
2023/03/08 13:00:24;;;;;;;21.38;9.13;;;;;;;;;;5009974;28;20379;-70
2023/03/08 13:03:08;;;;;;;21.15;7.53;;;;;;;;;;5009855;28;20506;-69
2023/03/08 13:05:36;;;;;;;19.17;8.48;;;;;;;;;;5011338;28;20482;-69
2023/03/08 13:08:15;;;;;;;25.13;8.98;;;;;;;;;;5010985;28;20057;-68
2023/03/08 13:10:55;;;;;;;17.40;8.82;;;;;;;;;;5011152;28;20034;-69
2023/03/08 13:13:39;;;;;;;17.10;7.57;;;;;;;;;;5011208;28;20072;-70
2023/03/08 13:16:14;;;;;;;13.48;7.07;;;;;;;;;;5010852;28;20034;-70
2023/03/08 13:18:44;;;;;;;16.33;7.82;;;;;;;;;;5011112;28;20030;-68
2023/03/08 13:21:18;;;;;;;16.25;7.80;;;;;;;;;;5011298;28;20046;-69
2023/03/08 13:24:10;;;;;;;16.60;8.50;;;;;;;;;;5011289;28;20038;-68
2023/03/08 13:26:45;;;;;;;14.98;8.02;;;;;;;;;;5002307;28;20057;-70
2023/03/08 13:29:15;;;;;;;16.25;8.18;;;;;;;;;;5010902;28;20034;-68
2023/03/08 13:31:42;;;;;;;15.77;7.97;;;;;;;;;;5011057;28;20021;-68
2023/03/08 13:34:24;;;;;;;14.38;7.90;;;;;;;;;;5011004;28;20054;-69
2023/03/08 13:36:50;;;;;;;13.67;7.67;;;;;;;;;;5010963;28;20026;-69
2023/03/08 13:39:20;;;;;;;15.40;8.13;;;;;;;;;;5010599;28;20030;-71
2023/03/08 13:41:47;;;;;;;14.38;7.80;;;;;;;;;;5011959;28;20026;-69
2023/03/08 13:44:17;;;;;;;14.93;7.10;;;;;;;;;;5014246;28;20065;-70
2023/03/08 13:46:44;;;;;;;12.70;6.88;;;;;;;;;;5014127;28;20026;-70
2023/03/08 13:49:30;;;;;;;15.73;8.38;;;;;;;;;;5014378;28;20517;-69
2023/03/08 13:51:58;;;;;;;13.77;7.15;;;;;;;;;;5013830;28;20034;-68
2023/03/08 13:54:28;;;;;;;18.48;7.32;;;;;;;;;;5014295;28;20061;-69
2023/03/08 13:56:55;;;;;;;13.05;6.90;;;;;;;;;;5014350;28;20523;-69
2023/03/08 13:59:21;;;;;;;16.23;8.13;;;;;;;;;;5012798;28;20030;-69
2023/03/08 14:01:48;;;;;;;19.08;8.38;;;;;;;;;;5013894;28;20022;-69
2023/03/08 14:04:28;;;;;;;17.38;8.77;;;;;;;;;;5014070;28;20038;-69
2023/03/08 14:06:58;;;;;;;14.95;8.52;;;;;;;;;;5014172;28;20053;-68
2023/03/08 14:09:25;;;;;;;12.77;7.38;;;;;;;;;;5013943;28;20022;-69
2023/03/08 14:12:02;;;;;;;14.38;7.35;;;;;;;;;;5014143;28;20026;-69
2023/03/08 14:14:33;;;;;;;16.90;7.82;;;;;;;;;;5014371;28;20065;-68
2023/03/08 14:16:59;;;;;;;13.32;7.05;;;;;;;;;;5014020;28;20045;-70
2023/03/08 14:19:28;;;;;;;13.02;7.03;;;;;;;;;;5013868;28;20049;-69
2023/03/08 14:21:56;;;;;;;17.10;7.20;;;;;;;;;;5013679;28;20042;-69
2023/03/08 14:24:24;;;;;;;12.93;7.05;;;;;;;;;;5012686;28;20030;-69
2023/03/08 14:26:54;;;;;;;14.50;7.50;;;;;;;;;;5013663;28;20042;-68
2023/03/08 14:29:24;;;;;;;15.88;7.45;;;;;;;;;;5013610;28;20494;-68
2023/03/08 14:32:24;;;;;;;11.45;6.68;;;;;;;;;;5013665;28;20021;-68
2023/03/08 14:34:50;;;;;;;12.02;7.30;;;;;;;;;;5013348;28;20029;-68
2023/03/08 14:37:16;;;;;;;12.40;7.30;;;;;;;;;;5013286;28;20395;-70